createdAt,value
2022-12-09T00:00:03.224Z,98986.56
2022-12-09T00:02:45.442Z,98989.97
2022-12-09T00:05:35.086Z,98996.63
2022-12-09T00:08:23.987Z,99001.56
2022-12-09T00:11:06.233Z,99006.13
2022-12-09T00:13:58.904Z,99009.50
2022-12-09T00:16:47.969Z,99011.25
2022-12-09T00:19:30.449Z,99008.28
2022-12-09T00:22:19.006Z,99014.91
2022-12-09T00:25:01.029Z,99011.47
2022-12-09T00:27:49.887Z,99007.97
2022-12-09T00:30:39.187Z,99002.88
2022-12-09T00:33:21.142Z,99004.69
2022-12-09T00:36:15.050Z,99000.09
2022-12-09T00:38:58.456Z,99009.13
2022-12-09T00:41:47.055Z,99005.84
2022-12-09T00:44:29.160Z,99011.72
2022-12-09T00:47:18.114Z,99017.13
2022-12-09T00:50:00.325Z,99020.41
2022-12-09T00:52:49.869Z,99024.19
2022-12-09T00:55:39.055Z,99037.16
2022-12-09T00:58:27.763Z,99037.63
2022-12-09T01:01:16.991Z,99034.75
2022-12-09T01:03:59.791Z,99043.25
2022-12-09T01:06:49.818Z,99041.16
2022-12-09T01:09:32.298Z,99048.56
2022-12-09T01:12:21.181Z,99049.84
2022-12-09T01:15:03.085Z,99053.50
2022-12-09T01:17:52.790Z,99056.69
2022-12-09T01:20:43.340Z,99058.44
2022-12-09T01:23:24.912Z,99064.91
2022-12-09T01:26:08.548Z,99070.69
2022-12-09T01:28:59.882Z,99066.69
2022-12-09T01:31:48.841Z,99060.69
2022-12-09T01:34:45.116Z,99062.44
2022-12-09T01:37:34.800Z,99068.00
2022-12-09T01:40:22.126Z,99056.34
2022-12-09T01:43:11.127Z,99065.41
2022-12-09T01:45:53.223Z,99070.00
2022-12-09T01:48:45.962Z,99070.94
2022-12-09T01:51:30.248Z,99079.72
2022-12-09T01:54:19.837Z,99080.19
2022-12-09T01:57:03.243Z,99089.16
2022-12-09T01:59:53.909Z,99095.28
2022-12-09T02:02:37.225Z,99101.59
2022-12-09T02:05:26.948Z,99101.72
2022-12-09T02:08:09.269Z,99114.88
2022-12-09T02:11:46.153Z,99121.81
2022-12-09T02:14:49.137Z,99127.78
2022-12-09T02:17:54.849Z,99137.53
2022-12-09T02:21:11.831Z,99147.31
2022-12-09T02:24:09.709Z,99143.06
2022-12-09T02:27:12.887Z,99150.75
2022-12-09T02:30:15.412Z,99158.28
2022-12-09T02:33:31.039Z,99159.94
2022-12-09T02:36:19.442Z,99159.34
2022-12-09T02:39:07.949Z,99162.28
2022-12-09T02:41:53.498Z,99164.41
2022-12-09T02:44:43.968Z,99167.69
2022-12-09T02:47:33.257Z,99163.72
2022-12-09T02:50:27.835Z,99159.69
2022-12-09T02:53:21.791Z,99161.19
2022-12-09T02:56:12.104Z,99164.78
2022-12-09T02:59:00.919Z,99172.44
2022-12-09T03:01:56.183Z,99183.94
2022-12-09T03:04:47.235Z,99185.91
2022-12-09T03:07:46.867Z,99187.13
2022-12-09T03:10:44.866Z,99188.84
2022-12-09T03:14:04.954Z,99185.03
2022-12-09T03:16:56.982Z,99179.34
2022-12-09T03:20:16.037Z,99188.16
2022-12-09T03:23:08.861Z,99190.44
2022-12-09T03:26:02.839Z,99187.69
2022-12-09T03:28:57.902Z,99196.88
2022-12-09T03:31:42.252Z,99193.47
2022-12-09T03:34:40.794Z,99190.94
2022-12-09T03:37:32.937Z,99202.44
2022-12-09T03:40:19.351Z,99210.34
2022-12-09T03:43:17.857Z,99206.03
2022-12-09T03:46:07.209Z,99206.22
2022-12-09T03:48:49.280Z,99209.06
2022-12-09T03:51:57.966Z,99221.13
2022-12-09T03:55:05.936Z,99217.25
2022-12-09T03:57:58.199Z,99220.41
2022-12-09T04:00:42.928Z,99224.19
2022-12-09T04:03:31.965Z,99223.31
2022-12-09T04:06:14.188Z,99230.66
2022-12-09T04:09:03.216Z,99240.53
2022-12-09T04:11:51.885Z,99231.03
2022-12-09T04:14:40.226Z,99234.31
2022-12-09T04:17:21.987Z,99237.31
2022-12-09T04:20:13.434Z,99248.88
2022-12-09T04:22:55.750Z,99245.56
2022-12-09T04:25:46.102Z,99239.94
2022-12-09T04:28:34.811Z,99252.81
2022-12-09T04:31:18.938Z,99263.00
2022-12-09T04:34:09.883Z,99254.13
2022-12-09T04:36:52.211Z,99253.78
2022-12-09T04:39:41.148Z,99242.41
2022-12-09T04:42:23.186Z,99238.50
2022-12-09T04:45:11.818Z,99239.63
2022-12-09T04:48:01.090Z,99256.69
2022-12-09T04:50:43.514Z,99247.75
2022-12-09T04:53:32.765Z,99253.53
2022-12-09T04:56:27.247Z,99254.66
2022-12-09T04:59:16.076Z,99255.94
2022-12-09T05:01:58.609Z,99258.94
2022-12-09T05:04:50.004Z,99261.88
2022-12-09T05:07:32.835Z,99261.34
2022-12-09T05:10:22.153Z,99255.88
2022-12-09T05:13:04.471Z,99264.59
2022-12-09T05:15:53.970Z,99262.97
2022-12-09T05:18:43.164Z,99263.94
2022-12-09T05:21:31.942Z,99263.34
2022-12-09T05:24:14.279Z,99259.09
2022-12-09T05:27:03.264Z,99256.50
2022-12-09T05:29:45.332Z,99253.53
2022-12-09T05:32:37.036Z,99250.22
2022-12-09T05:35:25.506Z,99256.13
2022-12-09T05:38:09.011Z,99253.41
2022-12-09T05:40:51.394Z,99252.41
2022-12-09T05:43:40.879Z,99253.81
2022-12-09T05:46:30.939Z,99249.47
2022-12-09T05:49:13.884Z,99245.75
2022-12-09T05:52:02.160Z,99241.34
2022-12-09T05:54:46.027Z,99237.75
2022-12-09T05:57:34.379Z,99239.91
2022-12-09T06:00:18.192Z,99242.25
2022-12-09T06:03:00.263Z,99237.00
2022-12-09T06:05:48.993Z,99231.16
2022-12-09T06:08:31.853Z,99228.88
2022-12-09T06:11:29.134Z,99218.53
2022-12-09T06:14:12.711Z,99217.22
2022-12-09T06:17:02.052Z,99217.47
2022-12-09T06:19:44.162Z,99214.69
2022-12-09T06:22:33.914Z,99217.13
2022-12-09T06:25:16.270Z,99204.59
2022-12-09T06:28:06.911Z,99195.25
2022-12-09T06:30:56.305Z,99188.38
2022-12-09T06:33:54.795Z,99187.47
2022-12-09T06:36:39.234Z,99188.78
2022-12-09T06:39:27.919Z,99185.75
2022-12-09T06:42:10.261Z,99177.91
2022-12-09T06:44:58.869Z,99177.53
2022-12-09T06:47:41.335Z,99176.59
2022-12-09T06:50:30.169Z,99170.16
2022-12-09T06:53:13.258Z,99162.03
2022-12-09T06:56:05.206Z,99161.50
2022-12-09T06:59:01.209Z,99153.16
2022-12-09T07:01:49.636Z,99144.19
2022-12-09T07:04:32.213Z,99132.91
2022-12-09T07:07:16.188Z,99138.97
2022-12-09T07:10:04.897Z,99120.72
2022-12-09T07:12:54.232Z,99127.66
2022-12-09T07:15:36.407Z,99127.22
2022-12-09T07:18:25.936Z,99118.16
2022-12-09T07:21:18.208Z,99111.72
2022-12-09T07:24:11.915Z,99106.22
2022-12-09T07:26:55.235Z,99094.41
2022-12-09T07:29:45.165Z,99094.53
2022-12-09T07:32:27.495Z,99089.19
2022-12-09T07:35:18.084Z,99090.31
2022-12-09T07:38:00.501Z,99087.47
2022-12-09T07:40:50.345Z,99092.34
2022-12-09T07:43:32.398Z,99080.06
2022-12-09T07:46:25.142Z,99076.22
2022-12-09T07:49:09.259Z,99071.16
2022-12-09T07:51:58.132Z,99064.97
2022-12-09T07:54:40.044Z,99053.47
2022-12-09T07:57:29.124Z,99055.78
2022-12-09T08:00:12.218Z,99045.94
2022-12-09T08:03:01.909Z,99042.09
2022-12-09T08:05:44.274Z,99035.38
2022-12-09T08:08:33.059Z,99035.53
2022-12-09T08:11:31.712Z,99028.81
2022-12-09T08:14:20.982Z,99023.53
2022-12-09T08:17:03.461Z,99019.56
2022-12-09T08:19:53.123Z,99023.13
2022-12-09T08:22:35.102Z,99011.53
2022-12-09T08:25:25.174Z,99003.19
2022-12-09T08:28:07.166Z,99001.66
2022-12-09T08:30:56.390Z,98992.78
2022-12-09T08:33:39.270Z,98985.56
2022-12-09T08:36:33.901Z,98982.22
2022-12-09T08:39:17.485Z,98981.31
2022-12-09T08:42:07.382Z,98973.13
2022-12-09T08:44:55.846Z,98978.38
2022-12-09T08:47:49.978Z,98975.91
2022-12-09T08:50:32.345Z,98969.69
2022-12-09T08:53:21.012Z,98965.69
2022-12-09T08:56:03.267Z,98963.44
2022-12-09T08:58:51.831Z,98957.44
2022-12-09T09:01:43.021Z,98959.00
2022-12-09T09:04:31.990Z,98945.47
2022-12-09T09:07:21.963Z,98956.59
2022-12-09T09:10:11.856Z,98949.41
2022-12-09T09:12:54.860Z,98946.94
2022-12-09T09:15:39.930Z,98949.06
2022-12-09T09:18:30.208Z,98942.19
2022-12-09T09:21:20.347Z,98949.34
2022-12-09T09:24:03.887Z,98949.56
2022-12-09T09:26:46.933Z,98937.06
2022-12-09T09:29:38.277Z,98932.38
2022-12-09T09:32:26.456Z,98933.38
2022-12-09T09:35:23.367Z,98926.66
2022-12-09T09:38:11.381Z,98936.25
2022-12-09T09:40:54.029Z,98927.69
2022-12-09T09:43:46.502Z,98924.84
2022-12-09T09:46:44.042Z,98924.09
2022-12-09T09:49:57.134Z,98915.81
2022-12-09T09:52:46.011Z,98927.88
2022-12-09T09:55:58.263Z,98924.28
2022-12-09T09:58:53.409Z,98921.97
2022-12-09T10:01:45.044Z,98905.81
2022-12-09T10:05:07.141Z,98909.41
2022-12-09T10:07:55.781Z,98907.00
2022-12-09T10:11:17.063Z,98905.59
2022-12-09T10:14:25.464Z,98892.66
2022-12-09T10:17:21.337Z,98895.53
2022-12-09T10:20:15.216Z,98897.06
2022-12-09T10:23:15.477Z,98888.09
2022-12-09T10:26:07.872Z,98891.25
2022-12-09T10:29:01.918Z,98885.94
2022-12-09T10:31:50.654Z,98882.44
2022-12-09T10:34:39.957Z,98876.91
2022-12-09T10:37:48.542Z,98873.94
2022-12-09T10:41:01.314Z,98875.06
2022-12-09T10:43:47.366Z,98877.25
2022-12-09T10:46:37.188Z,98867.41
2022-12-09T10:49:34.869Z,98872.81
2022-12-09T10:52:31.023Z,98869.75
2022-12-09T10:55:14.236Z,98863.00
2022-12-09T10:58:26.239Z,98858.13
2022-12-09T11:01:18.305Z,98855.34
2022-12-09T11:04:08.083Z,98856.34
2022-12-09T11:06:58.767Z,98859.38
2022-12-09T11:09:45.038Z,98852.56
2022-12-09T11:12:41.096Z,98856.03
2022-12-09T11:15:34.759Z,98852.03
2022-12-09T11:18:37.957Z,98857.28
2022-12-09T11:21:50.887Z,98858.25
2022-12-09T11:24:40.834Z,98856.69
2022-12-09T11:27:46.761Z,98859.06
2022-12-09T11:30:31.784Z,98858.81
2022-12-09T11:33:45.009Z,98862.06
2022-12-09T11:36:37.038Z,98858.97
2022-12-09T11:39:41.799Z,98855.56
2022-12-09T11:42:25.715Z,98858.88
2022-12-09T11:45:20.836Z,98860.69
2022-12-09T11:48:33.957Z,98864.00
2022-12-09T11:51:56.859Z,98868.03
2022-12-09T11:54:57.983Z,98864.56
2022-12-09T11:57:58.784Z,98858.88
2022-12-09T12:00:52.423Z,98855.25
2022-12-09T12:03:52.772Z,98854.06
2022-12-09T12:07:19.321Z,98861.06
2022-12-09T12:10:13.684Z,98864.22
2022-12-09T12:13:24.781Z,98860.19
2022-12-09T12:16:19.833Z,98862.53
2022-12-09T12:19:07.550Z,98865.88
2022-12-09T12:22:34.953Z,98860.41
2022-12-09T12:25:52.782Z,98869.00
2022-12-09T12:28:41.215Z,98870.38
2022-12-09T12:31:35.748Z,98869.91
2022-12-09T12:34:40.807Z,98871.59
2022-12-09T12:37:48.670Z,98874.91
2022-12-09T12:41:35.818Z,98885.28
2022-12-09T12:44:38.805Z,98883.69
2022-12-09T12:47:36.773Z,98881.78
2022-12-09T12:50:40.795Z,98887.56
2022-12-09T12:53:41.070Z,98888.94
2022-12-09T12:56:42.819Z,98894.69
2022-12-09T13:00:01.276Z,98890.56
2022-12-09T13:03:12.834Z,98895.53
2022-12-09T13:06:00.226Z,98894.41
2022-12-09T13:09:03.797Z,98899.59
2022-12-09T13:12:12.047Z,98897.47
2022-12-09T13:15:02.797Z,98899.13
2022-12-09T13:17:45.510Z,98908.41
2022-12-09T13:20:43.720Z,98901.84
2022-12-09T13:23:41.176Z,98907.88
2022-12-09T13:26:53.833Z,98901.88
2022-12-09T13:29:52.209Z,98907.34
2022-12-09T13:32:46.815Z,98904.59
2022-12-09T13:35:52.935Z,98900.81
2022-12-09T13:38:47.741Z,98902.69
2022-12-09T13:41:58.775Z,98910.03
2022-12-09T13:44:47.396Z,98908.97
2022-12-09T13:47:42.761Z,98905.72
2022-12-09T13:50:38.843Z,98912.78
2022-12-09T13:53:28.240Z,98908.44
2022-12-09T13:56:15.732Z,98907.91
2022-12-09T13:58:57.953Z,98907.91
2022-12-09T14:02:07.727Z,98908.72
2022-12-09T14:05:06.931Z,98917.69
2022-12-09T14:08:09.883Z,98916.88
2022-12-09T14:10:54.154Z,98923.69
2022-12-09T14:13:47.817Z,98926.72
2022-12-09T14:16:36.139Z,98932.94
2022-12-09T14:19:33.885Z,98935.41
2022-12-09T14:22:25.166Z,98941.09
2022-12-09T14:29:53.720Z,98946.56
2022-12-09T14:32:50.759Z,98944.38
2022-12-09T14:35:42.565Z,98952.28
2022-12-09T14:38:54.316Z,98953.88
2022-12-09T14:42:00.689Z,98954.41
2022-12-09T14:44:55.727Z,98952.72
2022-12-09T14:47:50.112Z,98959.53
2022-12-09T14:50:36.761Z,98953.81
2022-12-09T14:53:32.765Z,98966.56
2022-12-09T14:56:15.098Z,98959.50
2022-12-09T14:59:28.756Z,98965.75
2022-12-09T15:02:31.325Z,98966.53
2022-12-09T15:05:24.812Z,98964.88
2022-12-09T15:08:07.087Z,98965.13
2022-12-09T15:10:55.748Z,98966.22
2022-12-09T15:13:45.811Z,98971.34
2022-12-09T15:16:28.300Z,98962.06
2022-12-09T15:19:30.746Z,98970.81
2022-12-09T15:22:38.668Z,98970.28
2022-12-09T15:25:30.155Z,98968.06
2022-12-09T15:28:26.609Z,98970.53
2022-12-09T15:31:31.767Z,98980.06
2022-12-09T15:34:27.392Z,98975.44
2022-12-09T15:37:13.805Z,98984.34
2022-12-09T15:40:09.666Z,98981.09
2022-12-09T15:43:02.744Z,98987.28
2022-12-09T15:45:53.087Z,98989.25
2022-12-09T15:48:41.824Z,98983.50
2022-12-09T15:51:33.688Z,98984.31
2022-12-09T15:54:28.701Z,98990.00
2022-12-09T15:57:17.510Z,98990.25
2022-12-09T16:00:13.002Z,98997.81
2022-12-09T16:02:55.382Z,98991.31
2022-12-09T16:05:44.863Z,99003.50
2022-12-09T16:08:58.783Z,99004.91
2022-12-09T16:11:43.016Z,99009.22
2022-12-09T16:14:33.811Z,99010.25
2022-12-09T16:17:31.687Z,99012.31
2022-12-09T16:20:49.771Z,99015.03
2022-12-09T16:23:38.845Z,99016.66
2022-12-09T16:26:49.713Z,99029.44
2022-12-09T16:29:44.675Z,99026.69
2022-12-09T16:32:44.823Z,99025.78
2022-12-09T16:35:46.039Z,99028.41
2022-12-09T16:38:28.813Z,99027.34
2022-12-09T16:41:20.264Z,99032.53
2022-12-09T16:44:04.791Z,99027.41
2022-12-09T16:46:54.133Z,99036.06
2022-12-09T16:49:35.752Z,99037.69
2022-12-09T16:52:30.235Z,99030.31
2022-12-09T16:55:24.790Z,99045.50
2022-12-09T16:58:13.092Z,99038.22
2022-12-09T17:00:55.854Z,99036.78
2022-12-09T17:04:01.816Z,99035.44
2022-12-09T17:06:44.087Z,99033.19
2022-12-09T17:09:32.755Z,99035.66
2022-12-09T17:12:15.189Z,99032.47
2022-12-09T17:15:03.674Z,99032.66
2022-12-09T17:17:48.909Z,99040.25
2022-12-09T17:20:37.723Z,99034.78
2022-12-09T17:23:21.337Z,99036.38
2022-12-09T17:26:12.066Z,99035.84
2022-12-09T17:29:02.224Z,99038.22
2022-12-09T17:31:52.798Z,99037.38
2022-12-09T17:34:36.265Z,99041.50
2022-12-09T17:37:25.653Z,99033.47
2022-12-09T17:40:14.741Z,99035.13
2022-12-09T17:42:57.059Z,99044.78
2022-12-09T17:45:46.042Z,99028.16
2022-12-09T17:48:37.031Z,99034.16
2022-12-09T17:51:21.733Z,99043.66
2022-12-09T17:54:04.143Z,99032.56
2022-12-09T17:56:54.794Z,99040.06
2022-12-09T17:59:37.123Z,99035.63
2022-12-09T18:02:26.787Z,99039.50
2022-12-09T18:05:16.770Z,99035.47
2022-12-09T18:07:59.310Z,99030.91
2022-12-09T18:10:47.805Z,99028.97
2022-12-09T18:13:31.074Z,99034.91
2022-12-09T18:16:20.760Z,99033.03
2022-12-09T18:19:03.164Z,99031.88
2022-12-09T18:21:52.648Z,99026.56
2022-12-09T18:24:35.108Z,99024.16
2022-12-09T18:27:23.771Z,99025.09
2022-12-09T18:30:06.294Z,99017.53
2022-12-09T18:32:55.773Z,99035.78
2022-12-09T18:35:38.047Z,99031.31
2022-12-09T18:38:26.789Z,99031.78
2022-12-09T18:41:09.143Z,99024.19
2022-12-09T18:43:59.836Z,99028.44
2022-12-09T18:46:45.092Z,99030.53
2022-12-09T18:49:35.776Z,99029.84
2022-12-09T18:52:18.102Z,99032.16
2022-12-09T18:55:06.787Z,99023.53
2022-12-09T18:57:55.928Z,99039.03
2022-12-09T19:00:46.166Z,99026.72
2022-12-09T19:03:28.948Z,99028.81
2022-12-09T19:06:40.715Z,99035.31
2022-12-09T19:09:33.784Z,99034.44
2022-12-09T19:12:56.503Z,99027.53
2022-12-09T19:15:27.632Z,99032.22
2022-12-09T19:18:17.915Z,99025.88
2022-12-09T19:21:09.820Z,99036.56
2022-12-09T19:24:01.373Z,99026.38
2022-12-09T19:26:51.029Z,99024.16
2022-12-09T19:29:34.175Z,99028.81
2022-12-09T19:32:51.410Z,99020.63
2022-12-09T19:35:25.289Z,99017.03
2022-12-09T19:38:13.757Z,99030.25
2022-12-09T19:40:56.260Z,99019.41
2022-12-09T19:43:44.780Z,99021.69
2022-12-09T19:46:29.960Z,99028.69
2022-12-09T19:49:23.773Z,99028.50
2022-12-09T19:52:06.018Z,99029.81
2022-12-09T19:54:54.773Z,99031.97
2022-12-09T19:57:43.705Z,99028.91
2022-12-09T20:00:26.023Z,99020.53
2022-12-09T20:03:14.788Z,99020.25
2022-12-09T20:06:03.761Z,99033.25
2022-12-09T20:08:47.161Z,99033.25
2022-12-09T20:11:37.700Z,99026.75
2022-12-09T20:14:21.994Z,99027.56
2022-12-09T20:17:10.712Z,99030.13
2022-12-09T20:19:53.096Z,99023.31
2022-12-09T20:22:41.762Z,99026.53
2022-12-09T20:25:30.678Z,99021.16
2022-12-09T20:28:13.078Z,99018.88
2022-12-09T20:31:07.717Z,99019.41
2022-12-09T20:33:55.435Z,99023.47
2022-12-09T20:36:46.717Z,99018.03
2022-12-09T20:39:35.041Z,99025.75
2022-12-09T20:42:16.748Z,99025.94
2022-12-09T20:45:05.040Z,99012.63
2022-12-09T20:47:47.749Z,99021.66
2022-12-09T20:50:33.669Z,99019.03
2022-12-09T20:53:26.769Z,99010.97
2022-12-09T20:56:16.018Z,99019.53
2022-12-09T20:59:01.731Z,99006.78
2022-12-09T21:01:51.083Z,99016.66
2022-12-09T21:04:33.837Z,99020.09
2022-12-09T21:07:16.063Z,99015.81
2022-12-09T21:10:04.910Z,99011.22
2022-12-09T21:12:47.129Z,99015.09
2022-12-09T21:15:35.756Z,99018.28
2022-12-09T21:18:24.056Z,99012.72
2022-12-09T21:21:06.743Z,99016.72
2022-12-09T21:23:55.719Z,99012.13
2022-12-09T21:26:37.969Z,99016.78
2022-12-09T21:29:31.628Z,99007.09
2022-12-09T21:32:26.718Z,99006.72
2022-12-09T21:35:16.107Z,99008.28
2022-12-09T21:37:57.740Z,99003.09
2022-12-09T21:40:39.920Z,99002.59
2022-12-09T21:43:28.704Z,99011.06
2022-12-09T21:46:20.753Z,99004.34
2022-12-09T21:49:04.485Z,99008.91
2022-12-09T21:51:53.752Z,99000.97
2022-12-09T21:54:36.014Z,99005.81
2022-12-09T21:57:24.768Z,98994.63
2022-12-09T22:00:07.379Z,98993.72
2022-12-09T22:02:59.695Z,98997.69
2022-12-09T22:05:41.982Z,98994.72
2022-12-09T22:08:30.708Z,98997.00
2022-12-09T22:11:23.991Z,99000.63
2022-12-09T22:14:14.693Z,98991.44
2022-12-09T22:16:57.050Z,99001.97
2022-12-09T22:19:45.700Z,99006.16
2022-12-09T22:22:34.694Z,98997.50
2022-12-09T22:25:22.973Z,98996.28
2022-12-09T22:28:05.735Z,99000.41
2022-12-09T22:30:54.095Z,98999.16
2022-12-09T22:33:42.685Z,99008.84
2022-12-09T22:36:25.996Z,99001.31
2022-12-09T22:39:15.750Z,98996.53
2022-12-09T22:41:59.116Z,99009.03
2022-12-09T22:44:47.638Z,98997.50
2022-12-09T22:47:29.955Z,98991.28
2022-12-09T22:50:18.741Z,99001.47
2022-12-09T22:53:01.009Z,98993.06
2022-12-09T22:55:55.698Z,98995.88
2022-12-09T22:58:44.653Z,98995.13
2022-12-09T23:01:36.723Z,98999.31
2022-12-09T23:04:26.651Z,98987.91
2022-12-09T23:07:08.847Z,98989.31
2022-12-09T23:09:57.662Z,98990.69
2022-12-09T23:12:39.903Z,98990.28
2022-12-09T23:15:28.756Z,98991.44
2022-12-09T23:18:17.024Z,98994.22
2022-12-09T23:20:58.721Z,98992.59
2022-12-09T23:23:49.006Z,98995.69
2022-12-09T23:26:35.582Z,98992.00
2022-12-09T23:29:18.100Z,98998.47
2022-12-09T23:32:06.594Z,99006.56
2022-12-09T23:34:55.599Z,99008.09
2022-12-09T23:37:39.006Z,99007.72
2022-12-09T23:40:27.710Z,99007.09
2022-12-09T23:43:09.959Z,99015.53
2022-12-09T23:45:58.673Z,99020.84
2022-12-09T23:48:47.739Z,99018.16
2022-12-09T23:51:39.584Z,99007.66
2022-12-09T23:54:30.697Z,99015.25
2022-12-09T23:57:12.875Z,99022.13
